Time;durP1;ratioP1;P1;durP2;ratioP2;P2;SDS_P1;SDS_P2;PMS_P1;PMS_P2;Temp;Humidity;BMP_temperature;BMP_pressure;BME280_temperature;BME280_humidity;BME280_pressure;Samples;Min_cycle;Max_cycle;Signal;HPM_P1;HPM_P2
2022/05/07 00:01:07;;;;;;;9.53;4.50;;;;;;;14.02;57.98;95208.63;5128737;27;20271;-80
2022/05/07 00:03:36;;;;;;;6.20;4.00;;;;;;;14.02;57.73;95204.22;5129439;27;20215;-80
2022/05/07 00:06:05;;;;;;;5.27;4.00;;;;;;;14.02;58.13;95206.03;5126979;27;20191;-82
2022/05/07 00:08:34;;;;;;;9.47;4.70;;;;;;;13.97;57.31;95198.03;5127229;27;20206;-81
2022/05/07 00:11:02;;;;;;;9.93;4.20;;;;;;;14.02;56.79;95209.44;5131396;27;20227;-80
2022/05/07 00:13:30;;;;;;;8.77;3.70;;;;;;;13.92;57.03;95205.75;5130682;27;20187;-80
2022/05/07 00:18:44;;;;;;;10.20;4.00;;;;;;;13.76;56.94;95195.97;5131254;27;20688;-80
2022/05/07 00:21:12;;;;;;;9.47;3.90;;;;;;;13.77;57.02;95197.53;5130267;27;20657;-79
2022/05/07 00:23:40;;;;;;;9.87;3.90;;;;;;;13.51;57.62;95186.47;5129621;27;20222;-79
2022/05/07 00:26:09;;;;;;;6.80;4.00;;;;;;;13.58;57.43;95192.41;5124873;27;20564;-79
2022/05/07 00:28:37;;;;;;;7.17;4.50;;;;;;;13.62;56.93;95198.00;5128590;27;20242;-80
2022/05/07 00:31:06;;;;;;;8.00;4.20;;;;;;;13.57;57.21;95193.41;5132446;27;20195;-81
2022/05/07 00:33:34;;;;;;;5.87;3.53;;;;;;;13.67;56.08;95192.88;5130726;27;20235;-80
2022/05/07 00:36:03;;;;;;;4.67;3.53;;;;;;;13.62;56.22;95198.75;5131360;27;20255;-81
2022/05/07 00:38:33;;;;;;;5.83;3.83;;;;;;;13.50;55.92;95190.13;5129243;27;20247;-81
2022/05/07 00:41:00;;;;;;;7.97;4.10;;;;;;;13.48;56.33;95193.94;5125575;27;20829;-82
2022/05/07 00:43:36;;;;;;;6.27;3.73;;;;;;;13.48;56.00;95192.13;5128745;27;20223;-84
2022/05/07 00:46:04;;;;;;;12.03;3.80;;;;;;;13.45;55.79;95189.97;5129149;27;20314;-84
2022/05/07 00:48:32;;;;;;;7.60;3.40;;;;;;;13.37;55.59;95189.47;5135211;27;20673;-85
2022/05/07 00:53:49;;;;;;;7.60;3.73;;;;;;;13.22;54.94;95158.56;5135843;27;20313;-85
2022/05/07 00:56:17;;;;;;;7.40;3.83;;;;;;;13.12;54.96;95187.00;5133772;27;20198;-84
2022/05/07 00:58:45;;;;;;;8.13;3.67;;;;;;;12.74;56.10;95184.63;5135147;27;20278;-84
2022/05/07 01:01:13;;;;;;;6.83;3.83;;;;;;;12.65;56.35;95185.09;5137025;27;20203;-84
2022/05/07 01:03:42;;;;;;;6.73;3.80;;;;;;;12.73;56.03;95177.00;5142508;27;20226;-84
2022/05/07 01:06:10;;;;;;;8.17;3.50;;;;;;;12.84;55.40;95186.72;5139862;27;20582;-84
2022/05/07 01:08:38;;;;;;;11.30;3.63;;;;;;;12.93;54.95;95188.00;5135585;27;20211;-83
2022/05/07 01:11:08;;;;;;;5.70;3.83;;;;;;;13.00;55.00;95191.34;5125902;27;20195;-83
2022/05/07 01:13:37;;;;;;;7.73;3.60;;;;;;;13.03;54.59;95191.69;5139849;27;20278;-83
2022/05/07 01:16:06;;;;;;;5.13;3.70;;;;;;;13.13;53.84;95188.56;5136398;27;20191;-84
2022/05/07 01:18:34;;;;;;;7.47;3.60;;;;;;;13.12;53.86;95186.19;5129374;27;20208;-84
2022/05/07 01:21:08;;;;;;;7.73;3.70;;;;;;;13.20;53.23;95191.91;5105800;27;20210;-84
2022/05/07 01:23:38;;;;;;;6.50;3.83;;;;;;;13.12;53.45;95188.81;5131021;27;20215;-84
2022/05/07 01:26:05;;;;;;;7.97;3.30;;;;;;;13.14;53.42;95208.44;5128140;27;20189;-85
2022/05/07 01:28:34;;;;;;;5.67;3.50;;;;;;;13.15;53.39;95199.63;5131699;27;20234;-85
2022/05/07 01:31:02;;;;;;;6.70;3.97;;;;;;;13.03;53.84;95194.31;5134579;27;20199;-86
2022/05/07 01:33:33;;;;;;;5.57;3.87;;;;;;;12.98;54.18;95198.59;5127608;27;20196;-78
2022/05/07 01:36:02;;;;;;;6.40;4.00;;;;;;;13.08;54.60;95204.09;5129459;27;20208;-80
2022/05/07 01:38:32;;;;;;;7.60;4.00;;;;;;;12.97;54.51;95187.34;5127635;27;20206;-83
2022/05/07 01:41:01;;;;;;;9.70;3.80;;;;;;;12.91;55.01;95195.25;5135348;27;20622;-83
2022/05/07 01:43:29;;;;;;;5.50;3.80;;;;;;;12.95;54.88;95204.25;5132138;27;20980;-83
2022/05/07 01:45:58;;;;;;;8.20;3.80;;;;;;;12.89;54.30;95184.25;5140146;27;20186;-83
2022/05/07 01:48:27;;;;;;;9.07;4.00;;;;;;;12.91;54.54;95203.06;5135191;27;20210;-83
2022/05/07 01:50:55;;;;;;;6.37;3.53;;;;;;;12.79;54.72;95204.81;5128614;27;20599;-84
2022/05/07 01:53:23;;;;;;;8.43;3.70;;;;;;;12.89;54.40;95190.25;5132032;27;20260;-82
2022/05/07 01:55:53;;;;;;;8.83;3.70;;;;;;;12.94;53.94;95182.56;5132853;27;20226;-83
2022/05/07 01:58:20;;;;;;;8.07;3.80;;;;;;;12.79;54.22;95176.13;5133709;27;20198;-83
2022/05/07 02:00:49;;;;;;;7.03;3.73;;;;;;;12.69;54.52;95181.88;5135330;27;20584;-84
2022/05/07 02:03:17;;;;;;;6.53;3.77;;;;;;;12.74;54.33;95183.81;5132950;27;20318;-84
2022/05/07 02:05:45;;;;;;;5.03;3.40;;;;;;;12.66;54.18;95173.69;5137912;27;20198;-83
2022/05/07 02:08:14;;;;;;;6.63;3.73;;;;;;;12.71;54.34;95185.03;5136499;27;20240;-83
2022/05/07 02:10:42;;;;;;;9.33;3.50;;;;;;;12.79;54.21;95183.94;5126274;27;20332;-81
2022/05/07 02:13:13;;;;;;;8.73;3.67;;;;;;;12.85;54.21;95183.88;5132889;27;20200;-83
2022/05/07 02:15:42;;;;;;;10.87;3.60;;;;;;;12.87;54.07;95191.50;5135906;27;20204;-81
2022/05/07 02:18:09;;;;;;;5.97;3.33;;;;;;;12.81;54.06;95193.16;5131937;27;20202;-82
2022/05/07 02:20:38;;;;;;;9.70;4.00;;;;;;;12.78;54.11;95190.19;5132681;27;20199;-82
2022/05/07 02:23:05;;;;;;;5.83;3.67;;;;;;;12.31;55.20;95187.28;5135121;27;20195;-81
2022/05/07 02:25:34;;;;;;;6.87;3.80;;;;;;;12.01;56.72;95188.13;5131888;27;20622;-81
2022/05/07 02:28:03;;;;;;;6.07;3.20;;;;;;;11.90;56.58;95195.63;5132558;27;20224;-81
2022/05/07 02:30:33;;;;;;;7.80;3.60;;;;;;;11.91;57.12;95186.81;5131188;27;20226;-82
2022/05/07 02:33:02;;;;;;;6.67;3.70;;;;;;;11.93;57.60;95194.41;5134194;27;20201;-82
2022/05/07 02:35:30;;;;;;;11.83;3.80;;;;;;;12.07;56.90;95197.69;5132709;27;20212;-82
2022/05/07 02:37:58;;;;;;;10.00;3.73;;;;;;;12.20;56.67;95189.78;5138288;27;20712;-82
2022/05/07 02:40:26;;;;;;;7.10;3.43;;;;;;;12.34;56.34;95192.06;5132493;27;20649;-83
2022/05/07 02:42:53;;;;;;;6.07;3.93;;;;;;;12.36;55.74;95184.00;5128518;27;20922;-83
2022/05/07 02:45:22;;;;;;;9.07;3.60;;;;;;;12.49;55.73;95200.34;5130950;27;20211;-83
2022/05/07 02:47:51;;;;;;;8.20;3.57;;;;;;;12.53;55.66;95211.91;5128201;27;20208;-84
2022/05/07 02:50:19;;;;;;;5.33;3.27;;;;;;;12.54;55.67;95207.50;5136941;27;20196;-85
2022/05/07 02:52:47;;;;;;;9.30;3.80;;;;;;;12.58;55.79;95216.50;5137384;27;20202;-85
2022/05/07 02:55:15;;;;;;;5.50;3.70;;;;;;;12.58;55.88;95211.28;5129184;27;20188;-84
2022/05/07 02:57:43;;;;;;;7.13;3.53;;;;;;;12.56;55.89;95213.28;5130309;27;20203;-83
2022/05/07 03:00:13;;;;;;;11.30;3.87;;;;;;;12.36;56.59;95216.09;5137098;27;20218;-83
2022/05/07 03:02:41;;;;;;;7.27;3.50;;;;;;;12.41;56.63;95218.84;5133062;27;20735;-83
2022/05/07 03:05:11;;;;;;;6.43;3.67;;;;;;;12.47;56.63;95214.56;5130276;27;20219;-83
2022/05/07 03:07:39;;;;;;;5.80;3.30;;;;;;;12.41;57.00;95203.19;5133649;27;20202;-81
2022/05/07 03:10:08;;;;;;;5.80;4.00;;;;;;;12.35;57.13;95205.88;5133121;27;20206;-84
2022/05/07 03:12:36;;;;;;;9.10;3.80;;;;;;;12.24;57.38;95206.56;5135466;27;20217;-84
2022/05/07 03:15:04;;;;;;;6.43;4.20;;;;;;;12.20;57.89;95210.63;5132459;27;20227;-84
2022/05/07 03:17:34;;;;;;;6.00;4.23;;;;;;;12.11;58.41;95197.06;5132359;27;20215;-83
2022/05/07 03:20:06;;;;;;;9.27;4.43;;;;;;;12.24;58.31;95206.56;5139848;27;20203;-85
2022/05/07 03:22:36;;;;;;;9.33;4.10;;;;;;;12.06;59.04;95209.16;5131270;27;20656;-84
2022/05/07 03:25:04;;;;;;;10.93;4.67;;;;;;;11.88;59.85;95207.28;5129701;27;20215;-84
2022/05/07 03:27:33;;;;;;;9.80;4.83;;;;;;;11.80;60.81;95212.75;5134815;27;20222;-81
2022/05/07 03:30:01;;;;;;;7.93;4.50;;;;;;;11.77;61.50;95208.78;5138644;27;20199;-83
2022/05/07 03:32:28;;;;;;;10.70;4.17;;;;;;;11.77;61.94;95206.16;5129960;27;20203;-84
2022/05/07 03:34:57;;;;;;;10.93;5.30;;;;;;;11.77;61.70;95205.38;5131131;27;20272;-84
2022/05/07 03:37:25;;;;;;;7.87;4.40;;;;;;;11.66;62.63;95206.78;5133585;27;20221;-84
2022/05/07 03:39:55;;;;;;;8.87;4.70;;;;;;;11.70;62.10;95205.41;5133732;27;20195;-83
2022/05/07 03:42:25;;;;;;;10.93;5.00;;;;;;;11.77;61.99;95211.38;5129101;27;20234;-83
2022/05/07 03:44:53;;;;;;;6.47;4.50;;;;;;;11.68;63.10;95214.41;5129969;27;20685;-84
2022/05/07 03:47:22;;;;;;;8.53;4.90;;;;;;;11.30;64.01;95206.63;5136189;27;20571;-84
2022/05/07 03:49:50;;;;;;;10.30;5.10;;;;;;;11.08;65.66;95226.16;5135412;27;20210;-84
2022/05/07 03:55:09;;;;;;;8.27;4.83;;;;;;;11.03;67.97;95211.13;5084256;27;20201;-84
2022/05/07 03:57:37;;;;;;;9.90;4.90;;;;;;;11.23;66.48;95230.06;5127481;27;20749;-84
2022/05/07 04:00:06;;;;;;;10.43;5.00;;;;;;;11.32;65.59;95217.59;5130316;27;20191;-83
2022/05/07 04:02:35;;;;;;;16.33;6.10;;;;;;;11.50;65.43;95235.13;5128962;27;20245;-84
2022/05/07 04:05:04;;;;;;;11.87;6.03;;;;;;;11.32;66.56;95228.81;5130869;27;20226;-84
2022/05/07 04:07:32;;;;;;;10.27;6.03;;;;;;;11.36;66.65;95232.63;5132861;27;20558;-85
2022/05/07 04:09:59;;;;;;;13.13;5.27;;;;;;;11.49;66.51;95236.13;5127334;27;20739;-85
2022/05/07 04:12:28;;;;;;;11.47;6.00;;;;;;;11.61;65.65;95235.25;5135253;27;20548;-84
2022/05/07 04:15:01;;;;;;;9.60;5.40;;;;;;;11.71;65.31;95246.06;5128811;27;20234;-84
2022/05/07 04:17:29;;;;;;;15.13;5.47;;;;;;;11.76;65.91;95241.03;5128667;27;20274;-84
2022/05/07 04:19:58;;;;;;;9.63;5.70;;;;;;;11.84;65.10;95245.97;5126757;27;20539;-84
2022/05/07 04:22:25;;;;;;;9.80;5.47;;;;;;;11.91;64.82;95238.91;5127789;27;20199;-84
2022/05/07 04:24:55;;;;;;;11.63;5.50;;;;;;;12.07;64.36;95239.38;5129512;27;20309;-85
2022/05/07 04:27:22;;;;;;;11.97;5.93;;;;;;;12.08;64.86;95243.59;5127364;27;20223;-83
2022/05/07 04:29:52;;;;;;;12.50;5.33;;;;;;;12.14;64.45;95227.13;5132945;27;20195;-84
2022/05/07 04:32:21;;;;;;;12.37;5.37;;;;;;;12.23;65.03;95244.88;5132514;27;20243;-82
2022/05/07 04:34:50;;;;;;;8.17;5.10;;;;;;;12.27;64.59;95240.81;5133388;27;20650;-84
2022/05/07 04:37:19;;;;;;;11.10;5.30;;;;;;;12.37;64.79;95242.97;5129712;27;20223;-85
2022/05/07 04:39:47;;;;;;;11.40;5.50;;;;;;;12.33;65.18;95239.16;5130825;27;21490;-84
2022/05/07 04:42:14;;;;;;;11.40;5.33;;;;;;;12.39;64.64;95239.13;5132256;27;20611;-85
2022/05/07 04:44:43;;;;;;;12.80;5.23;;;;;;;12.44;64.08;95238.47;5133704;27;20230;-85
2022/05/07 04:47:13;;;;;;;9.60;5.20;;;;;;;12.56;63.23;95241.97;5129359;27;20259;-84
2022/05/07 04:49:41;;;;;;;14.57;5.73;;;;;;;12.54;63.62;95238.78;5131520;27;20195;-84
2022/05/07 04:52:10;;;;;;;8.87;5.43;;;;;;;12.56;63.78;95238.56;5133179;27;20277;-83
2022/05/07 04:54:38;;;;;;;12.40;5.33;;;;;;;12.63;63.43;95234.88;5129998;27;20276;-84
2022/05/07 04:57:06;;;;;;;14.70;5.53;;;;;;;12.74;62.81;95241.19;5133136;27;20207;-85
2022/05/07 04:59:35;;;;;;;13.90;5.77;;;;;;;12.73;63.33;95243.00;5131129;27;20199;-85
2022/05/07 05:02:03;;;;;;;13.97;6.00;;;;;;;12.75;62.95;95248.00;5139041;27;20188;-84
2022/05/07 05:04:32;;;;;;;13.53;5.90;;;;;;;12.81;62.23;95250.53;5142672;27;20222;-84
2022/05/07 05:07:00;;;;;;;10.50;5.20;;;;;;;12.64;63.93;95249.50;5133989;27;20195;-84
2022/05/07 05:09:29;;;;;;;11.83;5.53;;;;;;;12.29;65.08;95238.03;5133231;27;20199;-84
2022/05/07 05:11:56;;;;;;;11.47;5.77;;;;;;;11.90;68.07;95246.94;5133040;27;20210;-83
2022/05/07 05:17:09;;;;;;;12.20;5.47;;;;;;;12.02;67.15;95236.63;5134628;27;20191;-83
2022/05/07 05:19:40;;;;;;;10.17;5.50;;;;;;;12.13;67.83;95244.56;5132859;27;20203;-83
2022/05/07 05:22:08;;;;;;;11.57;5.57;;;;;;;12.31;67.32;95246.41;5137770;27;20201;-84
2022/05/07 05:24:36;;;;;;;11.20;5.63;;;;;;;12.34;66.01;95231.16;5129990;27;20222;-84
2022/05/07 05:27:06;;;;;;;10.50;5.13;;;;;;;12.43;65.11;95250.72;5137025;27;20219;-83
2022/05/07 05:29:34;;;;;;;12.20;5.70;;;;;;;12.44;64.48;95244.47;5131053;27;20348;-83
2022/05/07 05:32:02;;;;;;;12.40;5.83;;;;;;;12.60;64.33;95250.16;5131043;27;21314;-73
2022/05/07 05:34:31;;;;;;;8.00;5.47;;;;;;;12.72;64.13;95251.84;5127889;27;20196;-72
2022/05/07 05:37:01;;;;;;;12.30;5.33;;;;;;;12.75;64.75;95243.59;5132843;27;20203;-73
2022/05/07 05:39:29;;;;;;;13.50;5.53;;;;;;;12.91;64.64;95250.03;5131997;27;20209;-74
2022/05/07 05:41:59;;;;;;;11.90;5.27;;;;;;;12.98;63.70;95256.78;5130452;27;20196;-72
2022/05/07 05:44:27;;;;;;;12.97;5.27;;;;;;;13.11;62.88;95258.47;5130555;27;20573;-73
2022/05/07 05:46:55;;;;;;;8.67;5.20;;;;;;;13.20;62.82;95248.53;5135672;27;20197;-73
2022/05/07 05:49:23;;;;;;;11.47;5.53;;;;;;;13.17;62.83;95254.19;5135592;27;20676;-73
2022/05/07 05:51:51;;;;;;;8.80;5.20;;;;;;;13.23;63.02;95248.91;5129809;27;20201;-72
2022/05/07 05:54:20;;;;;;;8.30;5.37;;;;;;;13.34;62.47;95247.34;5134506;27;20223;-71
2022/05/07 05:56:48;;;;;;;9.63;5.30;;;;;;;13.36;61.81;95248.72;5133766;27;20199;-72
2022/05/07 05:59:15;;;;;;;8.70;4.97;;;;;;;13.47;62.05;95252.44;5130500;27;21543;-72
2022/05/07 06:01:43;;;;;;;13.43;5.50;;;;;;;13.49;62.22;95247.78;5127699;27;20195;-72
2022/05/07 06:04:11;;;;;;;10.97;5.57;;;;;;;13.65;61.27;95260.19;5132136;27;20191;-73
2022/05/07 06:06:39;;;;;;;8.50;5.50;;;;;;;13.71;60.53;95258.53;5131466;27;20223;-71
2022/05/07 06:09:06;;;;;;;9.10;5.27;;;;;;;13.76;60.01;95256.88;5129055;27;20216;-72
2022/05/07 06:11:35;;;;;;;9.37;5.10;;;;;;;13.80;59.17;95254.56;5131247;27;20692;-72
2022/05/07 06:14:03;;;;;;;8.27;5.53;;;;;;;13.77;60.32;95266.28;5137407;27;20202;-72
2022/05/07 06:16:31;;;;;;;12.20;5.30;;;;;;;13.81;60.64;95246.53;5135305;27;20586;-72
2022/05/07 06:18:58;;;;;;;10.27;5.10;;;;;;;13.94;60.52;95256.00;5131674;27;20199;-72
2022/05/07 06:21:26;;;;;;;8.67;4.60;;;;;;;13.96;60.41;95252.16;5132383;27;20235;-73
2022/05/07 06:23:54;;;;;;;11.23;5.33;;;;;;;13.98;59.29;95257.13;5136176;27;20191;-72
2022/05/07 06:29:09;;;;;;;10.07;5.23;;;;;;;14.07;59.61;95253.97;5085267;28;20334;-73
2022/05/07 06:31:36;;;;;;;9.10;5.20;;;;;;;13.72;60.15;95245.25;5084667;28;20802;-80
2022/05/07 06:34:04;;;;;;;13.80;5.70;;;;;;;13.45;62.18;95249.22;5087032;28;20200;-83
2022/05/07 06:36:33;;;;;;;14.37;5.70;;;;;;;13.48;63.07;95251.38;5087865;28;20197;-78
2022/05/07 06:39:01;;;;;;;12.87;5.60;;;;;;;13.68;62.49;95253.75;5084239;28;20254;-78
2022/05/07 06:41:30;;;;;;;9.33;5.20;;;;;;;13.86;62.32;95245.84;5085521;28;20189;-79
2022/05/07 06:43:58;;;;;;;8.13;5.03;;;;;;;14.03;60.82;95252.81;5087574;28;20254;-79
2022/05/07 06:46:29;;;;;;;9.60;4.93;;;;;;;14.20;60.25;95242.50;5088204;28;20281;-80
2022/05/07 06:48:59;;;;;;;11.70;5.40;;;;;;;14.34;59.02;95243.94;5085359;28;20197;-80
2022/05/07 06:51:26;;;;;;;13.20;5.30;;;;;;;14.41;59.72;95233.34;5083634;28;20254;-81
2022/05/07 06:53:55;;;;;;;9.87;5.27;;;;;;;14.55;59.13;95232.91;5083464;28;20194;-80
2022/05/07 06:56:23;;;;;;;9.70;5.60;;;;;;;14.75;58.92;95241.19;5085518;28;20209;-80
2022/05/07 06:58:51;;;;;;;13.17;5.20;;;;;;;14.96;57.63;95254.72;5083376;28;20273;-81
2022/05/07 07:01:22;;;;;;;10.90;5.57;;;;;;;15.02;58.18;95249.38;5084061;28;20197;-81
2022/05/07 07:03:51;;;;;;;13.20;5.40;;;;;;;15.12;57.83;95241.69;5086148;28;20197;-80
2022/05/07 07:06:19;;;;;;;8.77;5.47;;;;;;;15.24;57.71;95241.69;5085360;28;20216;-81
2022/05/07 07:08:48;;;;;;;14.90;5.90;;;;;;;15.28;57.54;95229.72;5085226;28;20267;-88
2022/05/07 07:11:16;;;;;;;9.53;5.47;;;;;;;15.44;57.16;95223.72;5081913;28;20288;-80
2022/05/07 07:13:45;;;;;;;8.67;5.17;;;;;;;15.51;56.53;95224.44;5084599;28;20205;-79
2022/05/07 07:16:14;;;;;;;7.57;5.00;;;;;;;15.55;56.41;95219.53;5083378;28;20284;-76
2022/05/07 07:18:42;;;;;;;8.87;5.00;;;;;;;15.52;55.80;95215.56;5081258;28;20313;-78
2022/05/07 07:21:12;;;;;;;10.73;5.30;;;;;;;15.44;54.77;95215.09;5081085;28;20201;-78
2022/05/07 07:23:40;;;;;;;16.20;5.80;;;;;;;15.52;55.19;95223.41;5081485;28;21030;-78
2022/05/07 07:26:08;;;;;;;8.23;5.33;;;;;;;15.63;55.35;95217.31;5082058;28;20260;-77
2022/05/07 07:28:36;;;;;;;9.63;5.40;;;;;;;15.73;55.49;95214.88;5119009;27;20700;-77
2022/05/07 07:31:05;;;;;;;9.80;5.87;;;;;;;15.86;55.58;95217.22;5122240;27;20865;-77
2022/05/07 07:33:32;;;;;;;13.60;5.50;;;;;;;15.92;54.86;95215.47;5124339;27;20196;-78
2022/05/07 07:36:01;;;;;;;12.33;5.77;;;;;;;16.07;54.28;95209.69;5131707;27;20200;-78
2022/05/07 07:38:30;;;;;;;7.57;5.00;;;;;;;16.23;53.37;95219.38;5127109;27;20659;-81
2022/05/07 07:40:58;;;;;;;14.53;5.70;;;;;;;16.36;53.19;95211.19;5128358;27;20199;-80
2022/05/07 07:43:25;;;;;;;13.70;5.47;;;;;;;16.15;53.16;95212.69;5130309;27;20208;-79
2022/05/07 07:48:39;;;;;;;10.83;4.97;;;;;;;15.66;54.08;95211.63;5129972;27;20807;-84
2022/05/07 07:51:08;;;;;;;13.07;5.37;;;;;;;15.85;54.19;95209.56;5127943;27;20280;-85
2022/05/07 07:53:39;;;;;;;7.07;4.90;;;;;;;16.07;52.99;95205.25;5130495;27;20188;-76
2022/05/07 07:56:07;;;;;;;7.10;5.43;;;;;;;16.28;53.24;95207.13;5133076;27;20248;-82
2022/05/07 07:58:34;;;;;;;12.50;5.13;;;;;;;16.44;52.69;95195.03;5129873;27;20693;-81
2022/05/07 08:01:02;;;;;;;10.03;5.53;;;;;;;16.67;51.77;95205.38;5134456;27;20281;-78
2022/05/07 08:03:31;;;;;;;14.07;5.50;;;;;;;16.84;51.36;95214.00;5133437;27;20191;-84
2022/05/07 08:05:59;;;;;;;6.90;4.80;;;;;;;16.96;50.71;95214.69;5133316;27;20914;-77
2022/05/07 08:14:00;;;;;;;11.13;5.30;;;;;;;17.39;50.61;95210.47;5128852;27;20195;-79
2022/05/07 08:16:27;;;;;;;14.60;5.60;;;;;;;17.51;50.47;95211.94;5128779;27;20203;-76
2022/05/07 08:18:57;;;;;;;8.33;5.60;;;;;;;17.60;50.04;95219.41;5127014;27;20287;-77
2022/05/07 08:21:25;;;;;;;8.10;5.00;;;;;;;17.70;49.12;95203.72;5123887;27;20235;-76
2022/05/07 08:23:52;;;;;;;11.00;5.40;;;;;;;17.77;48.35;95212.22;5129366;27;20186;-76
2022/05/07 08:26:22;;;;;;;12.80;5.30;;;;;;;17.78;48.82;95211.16;5131491;27;20350;-77
2022/05/07 08:28:51;;;;;;;7.27;5.20;;;;;;;17.77;48.11;95210.38;5125691;27;20580;-79
2022/05/07 08:31:22;;;;;;;10.93;5.07;;;;;;;17.83;48.50;95212.00;5129482;27;20674;-83
2022/05/07 08:33:51;;;;;;;6.33;4.83;;;;;;;17.94;48.82;95208.44;5124860;27;20198;-77
2022/05/07 08:36:19;;;;;;;11.40;4.97;;;;;;;18.01;47.59;95206.38;5127740;27;20222;-82
2022/05/07 08:38:46;;;;;;;9.23;5.00;;;;;;;18.21;47.74;95207.59;5130526;27;20214;-76
2022/05/07 08:41:16;;;;;;;10.97;4.87;;;;;;;18.18;47.63;95216.00;5127470;27;20206;-80
2022/05/07 08:43:46;;;;;;;8.70;4.63;;;;;;;18.22;47.43;95209.97;5128101;27;20234;-78
2022/05/07 08:46:16;;;;;;;7.05;4.43;;;;;;;18.37;47.20;95209.28;5127684;27;20682;-76
2022/05/07 08:48:46;;;;;;;9.45;4.30;;;;;;;18.52;46.20;95206.81;5134239;27;20238;-78
2022/05/07 08:51:16;;;;;;;5.63;3.78;;;;;;;18.67;46.02;95207.69;5130956;27;20283;-78
2022/05/07 08:53:44;;;;;;;13.35;4.00;;;;;;;18.72;44.77;95204.28;5127339;27;20220;-79
2022/05/07 08:56:13;;;;;;;8.27;3.92;;;;;;;18.83;44.55;95199.88;5128538;27;21211;-79
2022/05/07 08:58:49;;;;;;;9.93;4.47;;;;;;;18.92;44.60;95206.25;5133126;27;20239;-78
2022/05/07 09:01:17;;;;;;;10.45;4.30;;;;;;;18.89;44.22;95206.75;5129614;27;20257;-79
2022/05/07 09:03:48;;;;;;;5.65;3.80;;;;;;;18.33;44.84;95205.56;5123417;27;20203;-79
2022/05/07 09:06:24;;;;;;;6.20;3.53;;;;;;;17.83;45.81;95203.31;5128708;27;20207;-78
2022/05/07 09:08:53;;;;;;;7.87;4.40;;;;;;;17.83;46.24;95193.59;5126549;27;20195;-79
2022/05/07 09:11:22;;;;;;;7.00;4.13;;;;;;;17.98;45.19;95201.59;5123741;27;20201;-79
2022/05/07 09:14:01;;;;;;;8.43;4.10;;;;;;;18.14;45.38;95205.97;5129493;27;20660;-78
2022/05/07 09:16:39;;;;;;;6.13;4.10;;;;;;;18.28;45.73;95201.06;5133324;27;20233;-78
2022/05/07 09:19:18;;;;;;;7.07;4.63;;;;;;;18.48;45.61;95201.25;5131283;27;20265;-79
2022/05/07 09:21:48;;;;;;;11.23;4.20;;;;;;;18.63;45.73;95192.66;5130703;27;20236;-79
2022/05/07 09:24:16;;;;;;;8.75;4.22;;;;;;;18.72;45.04;95193.75;5130727;27;21203;-79
2022/05/07 09:26:44;;;;;;;8.75;4.47;;;;;;;18.74;44.50;95194.28;5127190;27;20251;-79
2022/05/07 09:29:16;;;;;;;10.25;4.18;;;;;;;18.77;43.58;95191.16;5130007;27;20313;-78
2022/05/07 09:31:46;;;;;;;11.52;4.72;;;;;;;18.88;42.14;95189.34;5125426;27;20546;-79
2022/05/07 09:37:00;;;;;;;5.68;3.90;;;;;;;19.21;41.39;95181.06;5128558;27;20214;-79
2022/05/07 09:39:35;;;;;;;10.00;3.90;;;;;;;19.36;41.48;95169.78;5120666;27;20534;-77
2022/05/07 09:42:04;;;;;;;5.32;3.42;;;;;;;19.46;39.86;95164.56;5130759;27;20194;-77
2022/05/07 09:44:34;;;;;;;6.40;3.58;;;;;;;19.70;39.64;95163.84;5131891;27;20195;-79
2022/05/07 09:47:04;;;;;;;5.80;3.67;;;;;;;19.93;39.80;95159.09;5124895;27;20223;-77
2022/05/07 09:49:35;;;;;;;8.23;3.88;;;;;;;20.22;38.86;95160.16;5131828;27;20191;-79
2022/05/07 09:52:04;;;;;;;8.50;3.85;;;;;;;20.38;38.56;95156.47;5130678;27;20187;-78
2022/05/07 09:57:33;;;;;;;7.28;3.60;;;;;;;20.65;38.72;95154.31;5128469;27;20194;-77
2022/05/07 10:00:07;;;;;;;7.20;3.58;;;;;;;20.85;38.10;95150.81;5129137;27;20266;-79
2022/05/07 10:02:53;;;;;;;5.72;3.80;;;;;;;20.95;38.58;95153.44;5134469;27;20277;-78
2022/05/07 10:06:07;;;;;;;7.63;4.40;;;;;;;21.08;38.03;95144.94;5130287;27;20193;-78
2022/05/07 10:08:48;;;;;;;5.72;3.60;;;;;;;21.26;37.96;95139.06;5116974;27;20194;-78
2022/05/07 10:11:19;;;;;;;7.18;3.80;;;;;;;21.47;36.91;95142.38;5128505;27;20199;-78
2022/05/07 10:13:58;;;;;;;11.43;3.97;;;;;;;21.62;36.73;95136.19;5130873;27;20222;-77
2022/05/07 10:16:30;;;;;;;8.25;3.33;;;;;;;21.85;35.91;95140.78;5127698;27;20207;-77
2022/05/07 10:18:58;;;;;;;7.78;3.83;;;;;;;21.69;36.83;95134.81;5126046;27;20273;-77
2022/05/07 10:21:27;;;;;;;10.50;3.88;;;;;;;21.25;37.46;95129.53;5128468;27;20199;-78
2022/05/07 10:23:56;;;;;;;7.63;4.00;;;;;;;20.93;36.80;95115.88;5124723;27;20219;-78
2022/05/07 10:26:26;;;;;;;5.00;3.45;;;;;;;21.37;35.84;95124.72;5130146;27;20222;-77
2022/05/07 10:28:55;;;;;;;6.43;3.53;;;;;;;21.82;35.06;95123.59;5113490;27;20668;-77
2022/05/07 10:31:24;;;;;;;6.32;3.40;;;;;;;22.15;32.86;95121.25;5110958;27;20704;-77
2022/05/07 10:33:55;;;;;;;8.60;3.10;;;;;;;22.43;32.46;95121.25;5105078;27;20555;-77
2022/05/07 10:36:35;;;;;;;9.45;3.80;;;;;;;22.65;32.86;95128.75;5104490;27;20192;-77
2022/05/07 10:39:08;;;;;;;10.20;3.78;;;;;;;22.96;33.14;95129.19;5104483;27;20689;-77
2022/05/07 10:41:47;;;;;;;5.95;3.38;;;;;;;23.03;32.02;95132.31;5112186;27;20287;-77
2022/05/07 10:44:29;;;;;;;7.63;3.25;;;;;;;23.33;31.35;95136.41;5114227;27;20648;-78
2022/05/07 10:46:57;;;;;;;5.65;3.50;;;;;;;23.35;31.02;95127.09;5107822;27;20214;-78
2022/05/07 10:49:27;;;;;;;5.13;3.42;;;;;;;23.52;31.34;95126.66;5107586;27;20203;-78
2022/05/07 10:52:04;;;;;;;7.80;3.75;;;;;;;23.46;31.65;95125.13;5104812;27;20284;-78
2022/05/07 10:54:33;;;;;;;7.80;4.05;;;;;;;23.65;33.02;95115.31;5109511;27;20184;-77
2022/05/07 10:57:02;;;;;;;7.85;3.67;;;;;;;23.52;33.00;95110.72;5107745;27;20695;-77
2022/05/07 10:59:33;;;;;;;6.70;3.53;;;;;;;23.51;33.25;95106.47;5109040;27;20638;-76
2022/05/07 11:02:10;;;;;;;6.88;3.65;;;;;;;23.42;33.31;95114.31;5113847;27;20218;-77
2022/05/07 11:04:45;;;;;;;7.70;3.67;;;;;;;23.20;31.80;95106.09;5107418;27;20198;-78
2022/05/07 11:07:22;;;;;;;6.18;3.30;;;;;;;22.97;31.66;95101.63;5111048;27;20272;-78
2022/05/07 11:09:51;;;;;;;8.35;3.42;;;;;;;22.85;31.29;95099.38;5106809;27;20196;-76
2022/05/07 11:12:22;;;;;;;8.45;3.60;;;;;;;22.69;31.01;95108.56;5116719;27;20187;-77
2022/05/07 11:14:52;;;;;;;4.45;3.22;;;;;;;22.48;30.86;95105.28;5111918;27;20611;-77
2022/05/07 11:17:32;;;;;;;5.55;3.50;;;;;;;22.35;31.02;95094.56;5107795;27;20606;-77
2022/05/07 11:20:02;;;;;;;8.05;3.67;;;;;;;22.24;31.54;95101.84;5105753;27;20700;-77
2022/05/07 11:22:31;;;;;;;3.90;3.28;;;;;;;22.40;31.02;95090.00;5107358;27;20191;-77
2022/05/07 11:25:01;;;;;;;7.03;3.90;;;;;;;22.64;30.30;95095.38;5110036;27;20192;-77
2022/05/07 11:27:32;;;;;;;8.45;3.40;;;;;;;22.90;30.28;95094.00;5117653;27;20231;-78
2022/05/07 11:30:02;;;;;;;8.43;3.05;;;;;;;22.61;30.60;95104.63;5134822;27;20226;-77
2022/05/07 11:32:40;;;;;;;6.45;3.38;;;;;;;22.34;29.79;95098.28;5125639;27;20195;-77
2022/05/07 11:35:11;;;;;;;6.85;2.95;;;;;;;22.58;27.76;95075.25;5134898;27;20191;-78
2022/05/07 11:37:41;;;;;;;4.53;2.60;;;;;;;23.13;24.97;95079.91;5127519;27;20195;-78
2022/05/07 11:40:10;;;;;;;8.43;2.78;;;;;;;23.51;23.91;95083.41;5128497;27;20560;-78
2022/05/07 11:42:43;;;;;;;5.60;2.42;;;;;;;23.95;21.56;95072.34;5132935;27;20199;-77
2022/05/07 11:45:29;;;;;;;5.68;2.95;;;;;;;24.34;22.51;95076.47;5125767;27;20299;-77
2022/05/07 11:48:00;;;;;;;8.20;2.92;;;;;;;24.61;21.36;95069.34;5128396;27;20206;-77
2022/05/07 11:50:30;;;;;;;6.00;3.00;;;;;;;24.86;21.57;95064.59;5129690;27;20207;-78
2022/05/07 11:53:11;;;;;;;8.30;3.10;;;;;;;24.91;22.48;95059.19;5130401;27;20207;-77
2022/05/07 11:55:39;;;;;;;4.32;2.83;;;;;;;24.53;22.70;95056.69;5128603;27;20210;-78
2022/05/07 11:58:16;;;;;;;4.10;2.60;;;;;;;24.36;23.77;95061.81;5130730;27;20302;-78
2022/05/07 12:00:45;;;;;;;9.23;3.00;;;;;;;24.56;24.40;95056.09;5131897;27;20222;-77
2022/05/07 12:03:13;;;;;;;6.53;3.10;;;;;;;24.75;23.55;95066.66;5130790;27;20555;-78
2022/05/07 12:05:43;;;;;;;7.53;3.15;;;;;;;24.61;23.91;95041.94;5131883;27;20301;-76
2022/05/07 12:08:16;;;;;;;7.40;3.10;;;;;;;24.44;23.86;95031.13;5124160;27;20261;-78
2022/05/07 12:10:44;;;;;;;6.15;3.20;;;;;;;24.13;23.31;95058.25;5128976;27;20621;-78